createdAt,value
2018-09-29T00:02:10.563Z,99.90
2018-09-29T00:04:39.600Z,99.90
2018-09-29T00:07:23.738Z,99.90
2018-09-29T00:09:53.085Z,99.90
2018-09-29T00:12:22.080Z,99.90
2018-09-29T00:14:51.007Z,99.90
2018-09-29T00:17:20.098Z,99.90
2018-09-29T00:19:49.226Z,99.90
2018-09-29T00:22:18.199Z,99.90
2018-09-29T00:24:47.261Z,99.90
2018-09-29T00:27:16.262Z,99.90
2018-09-29T00:29:45.204Z,99.90
2018-09-29T00:32:14.244Z,99.90
2018-09-29T00:34:43.402Z,99.90
2018-09-29T00:37:12.694Z,99.90
2018-09-29T00:39:41.669Z,99.90
2018-09-29T00:42:10.767Z,99.90
2018-09-29T00:44:39.781Z,99.90
2018-09-29T00:47:08.791Z,99.90
2018-09-29T00:49:37.800Z,99.90
2018-09-29T00:52:07.584Z,99.90
2018-09-29T00:54:36.658Z,99.90
2018-09-29T00:57:05.705Z,99.90
2018-09-29T00:59:34.619Z,99.90
2018-09-29T01:02:03.632Z,99.90
2018-09-29T01:04:32.543Z,99.90
2018-09-29T01:07:01.443Z,99.90
2018-09-29T01:09:30.564Z,99.90
2018-09-29T01:11:59.520Z,99.90
2018-09-29T01:14:28.569Z,99.90
2018-09-29T01:16:57.557Z,99.90
2018-09-29T01:19:26.589Z,99.90
2018-09-29T01:21:55.988Z,99.90
2018-09-29T01:24:25.066Z,99.90
2018-09-29T01:26:54.191Z,99.90
2018-09-29T01:29:23.114Z,99.90
2018-09-29T01:31:52.056Z,99.90
2018-09-29T01:34:20.952Z,99.90
2018-09-29T01:36:49.937Z,99.90
2018-09-29T01:39:19.365Z,99.90
2018-09-29T01:41:48.345Z,99.90
2018-09-29T01:44:17.292Z,99.90
2018-09-29T01:46:46.316Z,99.90
2018-09-29T01:49:15.342Z,99.90
2018-09-29T01:51:44.227Z,99.90
2018-09-29T01:54:13.273Z,99.90
2018-09-29T01:56:42.779Z,99.90
2018-09-29T01:59:11.692Z,99.90
2018-09-29T02:01:40.731Z,99.90
2018-09-29T02:04:09.631Z,99.90
2018-09-29T02:06:38.643Z,99.90
2018-09-29T02:09:08.167Z,99.90
2018-09-29T02:11:37.188Z,99.90
2018-09-29T02:14:06.413Z,99.90
2018-09-29T02:16:35.410Z,99.90
2018-09-29T02:19:04.328Z,99.90
2018-09-29T02:21:33.327Z,99.90
2018-09-29T02:24:02.329Z,99.90
2018-09-29T02:26:31.256Z,99.90
2018-09-29T02:29:00.251Z,99.90
2018-09-29T02:31:29.172Z,99.90
2018-09-29T02:33:58.095Z,99.90
2018-09-29T02:36:27.039Z,99.90
2018-09-29T02:38:55.983Z,99.90
2018-09-29T02:41:25.010Z,99.90
2018-09-29T02:43:54.502Z,99.90
2018-09-29T02:46:23.559Z,99.90
2018-09-29T02:48:52.515Z,99.90
2018-09-29T02:51:21.520Z,99.90
2018-09-29T02:53:50.629Z,99.90
2018-09-29T02:56:19.667Z,99.90
2018-09-29T02:58:48.563Z,99.90
2018-09-29T03:01:18.143Z,99.90
2018-09-29T03:03:47.263Z,99.90
2018-09-29T03:06:16.178Z,99.90
2018-09-29T03:08:45.154Z,99.90
2018-09-29T03:11:14.109Z,99.90
2018-09-29T03:13:43.019Z,99.90
2018-09-29T03:16:12.104Z,99.90
2018-09-29T03:18:41.148Z,99.90
2018-09-29T03:21:10.579Z,99.90
2018-09-29T03:23:39.600Z,99.90
2018-09-29T03:26:08.656Z,99.90
2018-09-29T03:28:37.659Z,99.90
2018-09-29T03:31:06.898Z,99.90
2018-09-29T03:33:35.813Z,99.90
2018-09-29T03:36:05.344Z,99.90
2018-09-29T03:38:34.405Z,99.90
2018-09-29T03:41:03.481Z,99.90
2018-09-29T03:43:32.457Z,99.90
2018-09-29T03:46:01.963Z,99.90
2018-09-29T03:48:30.914Z,99.90
2018-09-29T03:51:00.227Z,99.90
2018-09-29T03:53:29.183Z,99.90
2018-09-29T03:55:58.151Z,99.90
2018-09-29T03:58:27.031Z,99.90
2018-09-29T04:00:55.990Z,99.90
2018-09-29T04:03:24.868Z,99.90
2018-09-29T04:05:53.743Z,99.90
2018-09-29T04:08:22.692Z,99.90
2018-09-29T04:10:51.557Z,99.90
2018-09-29T04:13:20.848Z,99.90
2018-09-29T04:15:49.761Z,99.90
2018-09-29T04:18:19.109Z,99.90
2018-09-29T04:20:47.979Z,99.90
2018-09-29T04:23:17.128Z,99.90
2018-09-29T04:25:46.011Z,99.90
2018-09-29T04:28:14.967Z,99.90
2018-09-29T04:30:44.436Z,99.90
2018-09-29T04:33:13.315Z,99.90
2018-09-29T04:35:42.841Z,99.90
2018-09-29T04:38:11.763Z,99.90
2018-09-29T04:40:40.632Z,99.90
2018-09-29T04:43:09.560Z,99.90
2018-09-29T04:45:39.044Z,99.90
2018-09-29T04:48:07.923Z,99.90
2018-09-29T04:50:36.805Z,99.90
2018-09-29T04:53:05.823Z,99.90
2018-09-29T04:55:34.684Z,99.90
2018-09-29T04:58:04.137Z,99.90
2018-09-29T05:00:33.085Z,99.90
2018-09-29T05:03:01.969Z,99.90
2018-09-29T05:05:30.859Z,99.90
2018-09-29T05:07:59.825Z,99.90
2018-09-29T05:10:28.705Z,99.90
2018-09-29T05:12:57.571Z,99.90
2018-09-29T05:15:26.616Z,99.90
2018-09-29T05:17:55.495Z,99.90
2018-09-29T05:20:24.996Z,99.90
2018-09-29T05:22:54.089Z,99.90
2018-09-29T05:25:23.051Z,99.90
2018-09-29T05:27:51.969Z,99.90
2018-09-29T05:30:20.896Z,99.90
2018-09-29T05:32:49.767Z,99.90
2018-09-29T05:35:18.738Z,99.90
2018-09-29T05:37:47.694Z,99.90
2018-09-29T05:40:16.825Z,99.90
2018-09-29T05:42:45.741Z,99.90
2018-09-29T05:45:14.701Z,99.90
2018-09-29T05:47:44.003Z,99.90
2018-09-29T05:50:12.876Z,98.10
2018-09-29T05:52:41.789Z,98.10
2018-09-29T05:55:10.668Z,98.50
2018-09-29T05:57:40.030Z,99.90
2018-09-29T06:00:09.104Z,99.90
2018-09-29T06:02:37.998Z,99.90
2018-09-29T06:05:06.927Z,88.20
2018-09-29T06:07:35.964Z,55.10
2018-09-29T06:10:05.076Z,47.20
2018-09-29T06:12:33.978Z,38.80
2018-09-29T06:15:02.927Z,35.90
2018-09-29T06:17:31.839Z,33.50
2018-09-29T06:20:00.721Z,31.60
2018-09-29T06:22:29.646Z,29.60
2018-09-29T06:24:58.550Z,29.40
2018-09-29T06:27:27.478Z,29.50
2018-09-29T06:29:56.451Z,28.30
2018-09-29T06:32:25.392Z,28.50
2018-09-29T06:34:54.299Z,29.50
2018-09-29T06:37:23.319Z,29.90
2018-09-29T06:39:52.242Z,31.20
2018-09-29T06:42:21.815Z,32.70
2018-09-29T06:44:50.784Z,30.30
2018-09-29T06:47:19.708Z,29.70
2018-09-29T06:49:48.578Z,26.90
2018-09-29T06:52:17.985Z,24.60
2018-09-29T06:54:46.847Z,21.90
2018-09-29T06:57:15.755Z,20.90
2018-09-29T06:59:44.684Z,20.30
2018-09-29T07:02:13.580Z,20.40
2018-09-29T07:04:42.464Z,19.90
2018-09-29T07:07:11.418Z,19.30
2018-09-29T07:09:40.334Z,19.10
2018-09-29T07:12:09.239Z,19.10
2018-09-29T07:14:38.156Z,18.40
2018-09-29T07:17:07.494Z,18.60
2018-09-29T07:19:36.966Z,17.70
2018-09-29T07:22:05.919Z,17.00
2018-09-29T07:24:34.800Z,17.40
2018-09-29T07:27:03.719Z,17.00
2018-09-29T07:29:32.752Z,15.90
2018-09-29T07:32:01.636Z,14.90
2018-09-29T07:34:30.497Z,14.80
2018-09-29T07:36:59.467Z,14.80
2018-09-29T07:39:28.419Z,14.40
2018-09-29T07:41:57.290Z,14.30
2018-09-29T07:44:26.367Z,14.40
2018-09-29T07:46:55.259Z,13.50
2018-09-29T07:49:24.184Z,13.30
2018-09-29T07:51:53.220Z,11.90
2018-09-29T07:54:22.139Z,12.30
2018-09-29T07:56:51.075Z,11.80
2018-09-29T07:59:20.197Z,10.90
2018-09-29T08:01:49.062Z,11.00
2018-09-29T08:04:17.948Z,11.10
2018-09-29T08:06:47.015Z,10.70
2018-09-29T08:09:15.926Z,9.80
2018-09-29T08:11:44.809Z,9.70
2018-09-29T08:14:13.856Z,10.30
2018-09-29T08:16:42.713Z,10.80
2018-09-29T08:19:11.639Z,9.80
2018-09-29T08:21:40.783Z,9.60
2018-09-29T08:24:09.744Z,9.30
2018-09-29T08:26:38.692Z,8.90
2018-09-29T08:29:07.650Z,8.60
2018-09-29T08:31:36.535Z,10.40
2018-09-29T08:34:05.515Z,11.20
2018-09-29T08:36:34.467Z,10.60
2018-09-29T08:39:03.536Z,9.10
2018-09-29T08:41:32.444Z,9.40
2018-09-29T08:44:01.458Z,9.40
2018-09-29T08:46:30.366Z,8.50
2018-09-29T08:48:59.279Z,8.20
2018-09-29T08:51:28.215Z,9.20
2018-09-29T08:53:57.216Z,10.60
2018-09-29T08:56:26.603Z,11.70
2018-09-29T08:58:55.602Z,11.70
2018-09-29T09:01:24.510Z,13.00
2018-09-29T09:03:53.451Z,13.70
2018-09-29T09:06:22.394Z,13.40
2018-09-29T09:08:51.280Z,13.60
2018-09-29T09:11:20.171Z,16.10
2018-09-29T09:13:49.179Z,20.10
2018-09-29T09:16:18.038Z,21.70
2018-09-29T09:18:46.944Z,23.60
2018-09-29T09:21:15.927Z,25.70
2018-09-29T09:23:44.849Z,28.60
2018-09-29T09:26:13.809Z,31.30
2018-09-29T09:28:42.799Z,32.90
2018-09-29T09:31:11.676Z,32.50
2018-09-29T09:33:41.148Z,36.00
2018-09-29T09:36:10.529Z,37.00
2018-09-29T09:38:39.435Z,37.60
2018-09-29T09:41:08.351Z,36.80
2018-09-29T09:43:37.779Z,36.50
2018-09-29T09:46:07.208Z,38.60
2018-09-29T09:48:36.122Z,39.00
2018-09-29T09:51:05.272Z,36.50
2018-09-29T09:53:35.209Z,36.10
2018-09-29T09:56:06.899Z,34.60
2018-09-29T09:58:37.292Z,34.70
2018-09-29T10:01:11.785Z,33.40
2018-09-29T10:03:40.833Z,32.80
2018-09-29T10:06:10.321Z,31.70
2018-09-29T10:08:39.554Z,31.90
2018-09-29T10:11:08.474Z,31.10
2018-09-29T10:13:37.360Z,32.30
2018-09-29T10:16:06.355Z,30.90
2018-09-29T10:18:35.288Z,30.20
2018-09-29T10:21:04.235Z,29.50
2018-09-29T10:23:33.171Z,29.90
2018-09-29T10:26:02.094Z,29.80
2018-09-29T10:28:30.964Z,31.60
2018-09-29T10:30:59.967Z,31.10
2018-09-29T10:33:28.830Z,30.30
2018-09-29T10:35:57.717Z,29.50
2018-09-29T10:38:26.742Z,29.60
2018-09-29T10:40:55.636Z,29.20
2018-09-29T10:43:24.508Z,29.60
2018-09-29T10:45:53.560Z,29.40
2018-09-29T10:48:22.528Z,29.80
2018-09-29T10:50:51.478Z,30.70
2018-09-29T10:53:20.426Z,31.30
2018-09-29T10:55:49.308Z,28.60
2018-09-29T10:58:18.173Z,30.20
2018-09-29T11:00:47.096Z,29.90
2018-09-29T11:03:15.952Z,30.10
2018-09-29T11:05:44.871Z,29.70
2018-09-29T11:11:06.533Z,29.40
2018-09-29T11:13:35.557Z,29.60
2018-09-29T11:16:04.566Z,30.70
2018-09-29T11:18:35.356Z,30.90
2018-09-29T11:21:05.684Z,30.60
2018-09-29T11:23:34.908Z,30.90
2018-09-29T11:26:04.420Z,29.60
2018-09-29T11:28:33.617Z,27.10
2018-09-29T11:31:02.570Z,26.20
2018-09-29T11:33:31.519Z,26.00
2018-09-29T11:36:00.685Z,26.40
2018-09-29T11:38:29.716Z,27.20
2018-09-29T11:40:58.871Z,25.70
2018-09-29T11:43:27.909Z,26.60
2018-09-29T11:45:56.821Z,28.70
2018-09-29T11:48:27.030Z,29.40
2018-09-29T11:50:56.439Z,30.30
2018-09-29T11:53:25.407Z,31.70
2018-09-29T11:55:55.500Z,31.50
2018-09-29T11:58:24.568Z,31.20
2018-09-29T12:00:53.598Z,29.90
2018-09-29T12:03:22.627Z,30.00
2018-09-29T12:05:52.022Z,30.00
2018-09-29T12:08:21.017Z,30.90
2018-09-29T12:10:49.960Z,31.20
2018-09-29T12:13:18.966Z,31.90
2018-09-29T12:15:47.914Z,32.60
2018-09-29T12:18:17.076Z,33.60
2018-09-29T12:20:46.338Z,31.60
2018-09-29T12:23:15.884Z,31.60
2018-09-29T12:25:44.853Z,30.30
2018-09-29T12:28:13.916Z,29.60
2018-09-29T12:30:43.055Z,30.00
2018-09-29T12:33:11.968Z,30.00
2018-09-29T12:35:40.984Z,30.10
2018-09-29T12:38:09.888Z,29.90
2018-09-29T12:40:38.829Z,29.10
2018-09-29T12:43:07.815Z,28.50
2018-09-29T12:45:36.716Z,28.40
2018-09-29T12:48:05.764Z,28.40
2018-09-29T12:50:37.017Z,29.50
2018-09-29T12:53:06.026Z,29.50
2018-09-29T12:55:34.945Z,30.20
2018-09-29T12:58:03.886Z,30.40
2018-09-29T13:00:32.775Z,30.90
2018-09-29T13:03:01.671Z,30.80
2018-09-29T13:05:30.664Z,29.90
2018-09-29T13:07:59.585Z,28.30
2018-09-29T13:10:28.656Z,28.60
2018-09-29T13:12:57.595Z,29.80
2018-09-29T13:15:26.575Z,30.00
2018-09-29T13:17:55.537Z,29.60
2018-09-29T13:20:24.532Z,29.60
2018-09-29T13:22:53.482Z,27.50
2018-09-29T13:25:22.480Z,26.50
2018-09-29T13:27:51.434Z,26.60
2018-09-29T13:30:20.352Z,27.40
2018-09-29T13:32:49.257Z,27.80
2018-09-29T13:35:18.221Z,27.00
2018-09-29T13:37:47.164Z,27.20
2018-09-29T13:40:16.069Z,27.20
2018-09-29T13:42:45.071Z,28.00
2018-09-29T13:45:13.975Z,26.40
2018-09-29T13:47:42.954Z,27.00
2018-09-29T13:50:11.982Z,26.70
2018-09-29T13:52:41.044Z,27.50
2018-09-29T13:55:09.979Z,27.10
2018-09-29T13:57:39.048Z,27.00
2018-09-29T14:00:08.112Z,27.60
2018-09-29T14:02:37.050Z,27.80
2018-09-29T14:05:06.120Z,27.70
2018-09-29T14:07:35.112Z,27.30
2018-09-29T14:10:05.250Z,26.20
2018-09-29T14:12:34.275Z,26.20
2018-09-29T14:15:03.223Z,26.60
2018-09-29T14:17:32.140Z,27.30
2018-09-29T14:20:01.193Z,25.80
2018-09-29T14:22:29.988Z,25.90
2018-09-29T14:24:58.932Z,26.70
2018-09-29T14:27:27.996Z,26.20
2018-09-29T14:29:56.920Z,26.90
2018-09-29T14:32:25.979Z,26.80
2018-09-29T14:34:55.067Z,26.60
2018-09-29T14:37:23.978Z,27.00
2018-09-29T14:39:52.877Z,27.20
2018-09-29T14:42:21.858Z,27.50
2018-09-29T14:44:50.762Z,26.70
2018-09-29T14:47:19.709Z,26.10
2018-09-29T14:49:49.674Z,25.80
2018-09-29T14:52:19.747Z,25.40
2018-09-29T14:54:48.896Z,26.00
2018-09-29T14:57:17.859Z,27.20
2018-09-29T14:59:46.804Z,25.90
2018-09-29T15:02:15.772Z,25.50
2018-09-29T15:04:45.224Z,24.70
2018-09-29T15:07:14.115Z,25.40
2018-09-29T15:09:43.068Z,24.90
2018-09-29T15:12:12.102Z,25.30
2018-09-29T15:14:41.059Z,25.80
2018-09-29T15:17:10.038Z,26.50
2018-09-29T15:19:38.980Z,26.50
2018-09-29T15:22:07.952Z,26.50
2018-09-29T15:24:37.039Z,26.10
2018-09-29T15:27:06.043Z,25.90
2018-09-29T15:29:34.971Z,25.30
2018-09-29T15:32:03.851Z,25.60
2018-09-29T15:34:32.777Z,25.70
2018-09-29T15:37:01.733Z,25.30
2018-09-29T15:39:30.618Z,26.20
2018-09-29T15:41:59.630Z,26.20
2018-09-29T15:44:28.508Z,25.70
2018-09-29T15:46:57.403Z,26.20
2018-09-29T15:49:26.523Z,26.20
2018-09-29T15:51:55.487Z,26.10
2018-09-29T15:54:24.696Z,27.00
2018-09-29T15:56:53.726Z,28.10
2018-09-29T15:59:22.631Z,28.00
2018-09-29T16:01:51.560Z,29.40
2018-09-29T16:04:20.543Z,29.90
2018-09-29T16:06:49.625Z,32.10
2018-09-29T16:09:19.327Z,31.90
2018-09-29T16:11:48.430Z,31.50
2018-09-29T16:14:17.310Z,32.30
2018-09-29T16:16:46.174Z,32.40
2018-09-29T16:19:15.203Z,34.30
2018-09-29T16:21:44.248Z,34.50
2018-09-29T16:24:13.273Z,35.00
2018-09-29T16:26:42.203Z,35.30
2018-09-29T16:29:11.099Z,35.80
2018-09-29T16:31:40.119Z,36.30
2018-09-29T16:34:09.291Z,36.40
2018-09-29T16:36:38.558Z,37.30
2018-09-29T16:39:10.514Z,37.90
2018-09-29T16:41:39.720Z,38.60
2018-09-29T16:44:08.707Z,39.90
2018-09-29T16:46:37.664Z,40.00
2018-09-29T16:49:06.657Z,41.40
2018-09-29T16:51:35.812Z,41.10
2018-09-29T16:54:05.636Z,42.30
2018-09-29T16:56:34.974Z,42.70
2018-09-29T16:59:04.194Z,44.00
2018-09-29T17:01:33.247Z,43.70
2018-09-29T17:04:04.247Z,44.50
2018-09-29T17:06:33.156Z,45.40
2018-09-29T17:09:02.294Z,47.30
2018-09-29T17:11:31.188Z,48.40
2018-09-29T17:14:00.148Z,50.30
2018-09-29T17:16:40.848Z,51.80
2018-09-29T17:19:09.802Z,55.90
2018-09-29T17:21:38.701Z,57.70
2018-09-29T17:24:07.607Z,57.30
2018-09-29T17:26:36.630Z,57.50
2018-09-29T17:29:05.548Z,56.50
2018-09-29T17:31:34.779Z,56.40
2018-09-29T17:34:04.142Z,55.80
2018-09-29T17:36:33.072Z,55.60
2018-09-29T17:39:02.125Z,54.20
2018-09-29T17:41:31.186Z,53.40
2018-09-29T17:44:00.096Z,54.10
2018-09-29T17:46:29.003Z,57.50
2018-09-29T17:48:57.957Z,59.30
2018-09-29T17:51:27.025Z,60.60
2018-09-29T17:53:55.920Z,61.00
2018-09-29T17:56:24.876Z,63.50
2018-09-29T17:58:53.851Z,69.10
2018-09-29T18:01:22.737Z,66.20
2018-09-29T18:03:51.671Z,63.10
2018-09-29T18:06:20.807Z,61.20
2018-09-29T18:08:50.572Z,61.90
2018-09-29T18:11:19.525Z,63.20
2018-09-29T18:13:48.419Z,68.90
2018-09-29T18:16:17.375Z,70.10
2018-09-29T18:18:46.314Z,68.50
2018-09-29T18:21:15.741Z,76.20
2018-09-29T18:23:44.643Z,76.30
2018-09-29T18:26:13.586Z,78.50
2018-09-29T18:28:42.479Z,80.10
2018-09-29T18:31:11.411Z,81.30
2018-09-29T18:33:40.667Z,82.50
2018-09-29T18:36:09.547Z,84.00
2018-09-29T18:38:38.901Z,85.50
2018-09-29T18:41:08.369Z,86.50
2018-09-29T18:43:37.287Z,83.30
2018-09-29T18:46:06.301Z,84.00
2018-09-29T18:48:35.327Z,90.00
2018-09-29T18:51:04.282Z,91.60
2018-09-29T18:53:33.196Z,92.00
2018-09-29T18:56:02.136Z,91.50
2018-09-29T18:58:31.079Z,92.30
2018-09-29T19:00:59.976Z,91.90
2018-09-29T19:03:29.315Z,91.40
2018-09-29T19:05:58.211Z,94.80
2018-09-29T19:08:27.225Z,95.50
2018-09-29T19:10:56.216Z,95.90
2018-09-29T19:13:25.159Z,95.40
2018-09-29T19:15:54.130Z,96.20
2018-09-29T19:18:23.072Z,97.70
2018-09-29T19:20:51.970Z,98.80
2018-09-29T19:23:20.876Z,98.80
2018-09-29T19:25:49.807Z,99.00
2018-09-29T19:28:18.695Z,98.10
2018-09-29T19:30:47.623Z,97.80
2018-09-29T19:33:16.623Z,99.00
2018-09-29T19:35:45.988Z,99.30
2018-09-29T19:38:14.923Z,99.00
2018-09-29T19:40:43.877Z,98.40
2018-09-29T19:43:12.776Z,99.90
2018-09-29T19:45:41.745Z,99.90
2018-09-29T19:48:10.713Z,99.00
2018-09-29T19:50:39.611Z,97.20
2018-09-29T19:53:08.520Z,97.40
2018-09-29T19:55:38.187Z,98.30
2018-09-29T19:58:07.428Z,99.80
2018-09-29T20:00:36.335Z,99.90
2018-09-29T20:03:05.634Z,99.90
2018-09-29T20:05:34.521Z,99.40
2018-09-29T20:08:03.451Z,99.90
2018-09-29T20:10:33.075Z,99.90
2018-09-29T20:13:02.567Z,99.90
2018-09-29T20:15:31.459Z,99.90
2018-09-29T20:18:00.412Z,99.90
2018-09-29T20:20:29.314Z,99.90
2018-09-29T20:22:58.199Z,99.90
2018-09-29T20:25:27.739Z,99.90
2018-09-29T20:27:56.615Z,99.90
2018-09-29T20:30:25.580Z,99.90
2018-09-29T20:32:54.539Z,99.90
2018-09-29T20:35:23.474Z,99.90
2018-09-29T20:37:52.465Z,99.90
2018-09-29T20:40:21.873Z,99.90
2018-09-29T20:42:50.754Z,99.90
2018-09-29T20:45:19.692Z,99.90
2018-09-29T20:47:48.677Z,99.90
2018-09-29T20:50:17.618Z,99.90
2018-09-29T20:52:46.506Z,99.90
2018-09-29T20:55:15.561Z,99.90
2018-09-29T20:57:44.449Z,99.90
2018-09-29T21:00:13.388Z,99.90
2018-09-29T21:02:42.377Z,99.90
2018-09-29T21:05:11.301Z,99.90
2018-09-29T21:07:40.811Z,99.90
2018-09-29T21:10:09.798Z,99.90
2018-09-29T21:12:38.763Z,99.90
2018-09-29T21:15:07.700Z,99.90
2018-09-29T21:17:36.645Z,99.90
2018-09-29T21:20:06.155Z,99.90
2018-09-29T21:22:35.287Z,99.90
2018-09-29T21:25:04.782Z,99.90
2018-09-29T21:27:33.713Z,99.90
2018-09-29T21:30:02.628Z,99.90
2018-09-29T21:32:31.699Z,99.90
2018-09-29T21:35:00.578Z,99.90
2018-09-29T21:37:29.925Z,99.90
2018-09-29T21:39:59.335Z,99.90
2018-09-29T21:42:28.320Z,99.90
2018-09-29T21:44:58.198Z,99.90
2018-09-29T21:47:27.292Z,99.90
2018-09-29T21:49:56.665Z,99.90
2018-09-29T21:52:26.698Z,99.90
2018-09-29T21:54:55.792Z,99.90
2018-09-29T21:57:24.858Z,99.90
2018-09-29T21:59:53.900Z,99.90
2018-09-29T22:02:22.968Z,99.90
2018-09-29T22:04:51.872Z,99.90
2018-09-29T22:07:21.168Z,99.90
2018-09-29T22:09:50.192Z,99.90
2018-09-29T22:12:20.251Z,99.90
2018-09-29T22:14:49.143Z,99.90
2018-09-29T22:17:18.084Z,99.90
2018-09-29T22:19:47.464Z,99.90
2018-09-29T22:22:16.552Z,99.90
2018-09-29T22:24:45.662Z,99.90
2018-09-29T22:27:14.967Z,99.90
2018-09-29T22:29:44.626Z,99.90
2018-09-29T22:32:13.609Z,99.90
2018-09-29T22:34:42.577Z,99.90
2018-09-29T22:37:11.542Z,99.90
2018-09-29T22:39:41.202Z,99.90
2018-09-29T22:42:10.669Z,99.90
2018-09-29T22:44:40.091Z,99.90
2018-09-29T22:47:09.043Z,99.90
2018-09-29T22:49:37.937Z,99.90
2018-09-29T22:52:07.351Z,99.90
2018-09-29T22:54:36.432Z,99.90
2018-09-29T22:57:05.360Z,99.90
2018-09-29T22:59:34.301Z,99.90
2018-09-29T23:02:03.373Z,99.90
2018-09-29T23:04:32.384Z,99.90
2018-09-29T23:07:01.270Z,99.90
2018-09-29T23:09:30.235Z,99.90
2018-09-29T23:11:59.131Z,99.90
2018-09-29T23:14:28.083Z,99.90
2018-09-29T23:16:57.054Z,99.90
2018-09-29T23:19:26.264Z,99.90
2018-09-29T23:21:55.167Z,99.90
2018-09-29T23:24:24.126Z,99.90
2018-09-29T23:26:53.044Z,99.90
2018-09-29T23:29:21.947Z,99.90
2018-09-29T23:31:50.979Z,99.90
2018-09-29T23:34:19.929Z,99.90
2018-09-29T23:36:48.862Z,99.90
2018-09-29T23:39:17.808Z,99.90
2018-09-29T23:41:46.876Z,99.90
2018-09-29T23:44:15.791Z,99.90
2018-09-29T23:46:44.744Z,99.90
2018-09-29T23:49:14.256Z,99.90
2018-09-29T23:51:43.190Z,99.90
2018-09-29T23:54:12.251Z,99.90
2018-09-29T23:56:41.868Z,99.90
2018-09-29T23:59:10.917Z,99.90
